Time;durP1;ratioP1;P1;durP2;ratioP2;P2;SDS_P1;SDS_P2;PMS_P1;PMS_P2;Temp;Humidity;BMP_temperature;BMP_pressure;BME280_temperature;BME280_humidity;BME280_pressure;Samples;Min_cycle;Max_cycle;Signal;HPM_P1;HPM_P2
2022/07/27 00:01:16;;;;;;;6.90;1.00;;;18.50;90.40;;;;;;5070392;28;20043;-66
2022/07/27 00:03:44;;;;;;;4.47;1.10;;;18.50;90.40;;;;;;5070878;28;20025;-66
2022/07/27 00:06:11;;;;;;;4.75;1.50;;;18.50;90.50;;;;;;5072038;28;20028;-66
2022/07/27 00:08:37;;;;;;;3.85;1.10;;;18.50;90.40;;;;;;5074121;28;20048;-66
2022/07/27 00:11:03;;;;;;;6.03;1.10;;;18.40;90.50;;;;;;5074358;28;20063;-66
2022/07/27 00:13:29;;;;;;;8.32;1.48;;;18.40;90.60;;;;;;5074338;28;20493;-66
2022/07/27 00:15:56;;;;;;;4.57;1.55;;;18.40;90.60;;;;;;5074000;28;20602;-65
2022/07/27 00:18:22;;;;;;;5.05;1.10;;;18.40;90.60;;;;;;5074081;28;20040;-66
2022/07/27 00:20:48;;;;;;;4.00;1.05;;;18.40;90.60;;;;;;5087968;22;20041;-68
2022/07/27 00:23:14;;;;;;;5.03;1.20;;;18.40;90.70;;;;;;5074207;28;20036;-68
2022/07/27 00:25:40;;;;;;;5.55;1.17;;;18.40;90.60;;;;;;5073642;28;20024;-69
2022/07/27 00:28:06;;;;;;;5.78;1.55;;;18.40;90.60;;;;;;5073750;28;20504;-68
2022/07/27 00:30:32;;;;;;;3.55;1.00;;;18.40;90.60;;;;;;5073383;28;20039;-68
2022/07/27 00:32:57;;;;;;;3.22;1.02;;;18.40;90.60;;;;;;5055768;28;20079;-69
2022/07/27 00:35:24;;;;;;;3.92;1.17;;;18.40;90.60;;;;;;5073768;28;20036;-68
2022/07/27 00:37:50;;;;;;;4.68;1.10;;;18.50;90.60;;;;;;5073590;28;20040;-68
2022/07/27 00:40:16;;;;;;;3.03;0.90;;;18.50;90.60;;;;;;5055326;28;20033;-69
2022/07/27 00:42:42;;;;;;;5.25;1.30;;;18.40;90.60;;;;;;5073441;28;20033;-69
2022/07/27 00:45:08;;;;;;;7.47;1.60;;;18.40;90.70;;;;;;5073503;28;20429;-69
2022/07/27 00:47:34;;;;;;;5.57;1.90;;;18.40;90.70;;;;;;5073414;28;20116;-68
2022/07/27 00:50:00;;;;;;;5.93;1.40;;;18.40;90.60;;;;;;5073225;28;20115;-69
2022/07/27 00:52:28;;;;;;;5.10;1.08;;;18.40;90.80;;;;;;5073267;28;20468;-69
2022/07/27 00:54:55;;;;;;;2.60;1.00;;;18.30;90.80;;;;;;5073880;28;20032;-69
2022/07/27 00:57:21;;;;;;;4.40;1.23;;;18.30;90.80;;;;;;5073144;28;20544;-69
2022/07/27 00:59:47;;;;;;;5.57;1.50;;;18.30;90.90;;;;;;5073129;28;20032;-69
2022/07/27 01:02:15;;;;;;;4.28;1.38;;;18.30;90.90;;;;;;5073187;28;20040;-69
2022/07/27 01:04:41;;;;;;;3.40;1.17;;;18.30;90.80;;;;;;5073181;28;20069;-69
2022/07/27 01:07:08;;;;;;;3.75;1.38;;;18.30;90.70;;;;;;5073269;28;20111;-69
2022/07/27 01:12:20;;;;;;;4.50;1.13;;;18.30;90.80;;;;;;5073024;28;20081;-69
2022/07/27 01:14:47;;;;;;;6.00;1.48;;;18.30;90.80;;;;;;5073060;28;20393;-69
2022/07/27 01:17:13;;;;;;;3.42;1.05;;;18.30;90.70;;;;;;5055059;28;20543;-69
2022/07/27 01:19:39;;;;;;;4.28;1.02;;;18.20;90.90;;;;;;5072551;28;20025;-69
2022/07/27 01:22:06;;;;;;;3.72;1.20;;;18.20;91.00;;;;;;5054697;28;20063;-69
2022/07/27 01:24:32;;;;;;;3.53;0.93;;;18.20;91.00;;;;;;5072643;28;20365;-69
2022/07/27 01:27:00;;;;;;;4.10;1.20;;;18.10;91.10;;;;;;5072584;28;20025;-69
2022/07/27 01:29:27;;;;;;;3.63;1.35;;;18.10;91.00;;;;;;5072375;28;20031;-69
2022/07/27 01:31:53;;;;;;;3.35;0.93;;;18.20;91.00;;;;;;5072715;28;20070;-69
2022/07/27 01:34:19;;;;;;;5.68;1.23;;;18.10;91.10;;;;;;5072708;28;20040;-69
2022/07/27 01:36:45;;;;;;;3.50;1.05;;;18.10;91.20;;;;;;5072454;28;20032;-69
2022/07/27 01:39:17;;;;;;;6.03;1.27;;;18.00;91.30;;;;;;5054371;28;20033;-69
2022/07/27 01:41:46;;;;;;;2.92;0.95;;;18.00;91.30;;;;;;5072300;28;20041;-69
2022/07/27 01:44:12;;;;;;;2.25;1.02;;;17.90;91.50;;;;;;5072359;28;20090;-69
2022/07/27 01:46:38;;;;;;;5.82;1.10;;;17.90;91.50;;;;;;5072226;28;20097;-68
2022/07/27 01:49:04;;;;;;;8.13;1.55;;;17.90;91.60;;;;;;5072101;28;20028;-68
2022/07/27 01:51:30;;;;;;;3.90;1.08;;;17.90;91.60;;;;;;5071977;28;20024;-68
2022/07/27 01:53:56;;;;;;;2.45;0.88;;;17.90;91.70;;;;;;5072687;28;20385;-68
2022/07/27 01:56:22;;;;;;;4.85;1.00;;;17.90;91.70;;;;;;5072088;28;20119;-68
2022/07/27 01:58:48;;;;;;;3.95;1.00;;;18.00;91.70;;;;;;5071955;28;20024;-68
2022/07/27 02:01:14;;;;;;;1.40;0.80;;;17.90;91.70;;;;;;5071875;28;20501;-68
2022/07/27 02:03:40;;;;;;;4.97;0.93;;;17.90;91.80;;;;;;5072043;28;20061;-68
2022/07/27 02:06:08;;;;;;;4.47;1.10;;;17.90;91.80;;;;;;5071797;28;20101;-68
2022/07/27 02:08:34;;;;;;;4.97;1.35;;;17.90;91.80;;;;;;5071666;28;20107;-68
2022/07/27 02:13:47;;;;;;;3.67;1.30;;;17.90;91.90;;;;;;5071879;28;20029;-68
2022/07/27 02:16:17;;;;;;;5.40;1.98;;;17.90;91.80;;;;;;5071673;28;20534;-68
2022/07/27 02:18:44;;;;;;;7.82;3.03;;;17.90;91.90;;;;;;5071367;28;20131;-68
2022/07/27 02:21:09;;;;;;;4.78;1.50;;;17.80;91.90;;;;;;5071473;28;20105;-68
2022/07/27 02:23:37;;;;;;;3.78;1.10;;;17.80;92.10;;;;;;5071960;28;20443;-69
2022/07/27 02:26:07;;;;;;;4.07;1.38;;;17.70;92.10;;;;;;5071889;28;20051;-68
2022/07/27 02:28:35;;;;;;;7.75;1.40;;;17.70;92.20;;;;;;5070841;28;20038;-68
2022/07/27 02:31:01;;;;;;;3.25;1.30;;;17.70;92.20;;;;;;5053504;28;20119;-69
2022/07/27 02:33:27;;;;;;;6.18;1.48;;;17.60;92.40;;;;;;5071381;28;20081;-68
2022/07/27 02:35:53;;;;;;;4.40;1.30;;;17.60;92.60;;;;;;5071237;28;20032;-68
2022/07/27 02:38:19;;;;;;;4.53;1.42;;;17.50;92.90;;;;;;5071425;28;20028;-69
2022/07/27 02:40:45;;;;;;;4.90;1.10;;;17.40;93.00;;;;;;5071393;28;20028;-68
2022/07/27 02:43:11;;;;;;;3.80;1.30;;;17.40;93.20;;;;;;5071674;28;20388;-68
2022/07/27 02:45:37;;;;;;;5.68;1.30;;;17.30;93.30;;;;;;5071450;28;20031;-68
2022/07/27 02:48:03;;;;;;;4.15;1.58;;;17.20;93.70;;;;;;5071414;28;20107;-68
2022/07/27 02:50:29;;;;;;;3.60;1.52;;;17.20;93.50;;;;;;5071275;28;20032;-68
2022/07/27 02:52:55;;;;;;;4.80;1.20;;;17.20;93.60;;;;;;5071183;28;20029;-69
2022/07/27 02:55:21;;;;;;;5.70;1.33;;;17.20;93.60;;;;;;5071001;28;20098;-68
2022/07/27 02:57:47;;;;;;;3.05;1.10;;;17.10;93.60;;;;;;5070937;28;20040;-69
2022/07/27 03:00:15;;;;;;;5.05;1.48;;;17.10;93.70;;;;;;5070713;28;20251;-68
2022/07/27 03:02:41;;;;;;;4.60;1.20;;;17.10;93.80;;;;;;5071126;28;20103;-69
2022/07/27 03:05:09;;;;;;;6.05;1.52;;;17.10;93.80;;;;;;5071064;28;20021;-68
2022/07/27 03:07:35;;;;;;;6.25;1.50;;;17.00;93.90;;;;;;5053000;28;20025;-68
2022/07/27 03:10:01;;;;;;;4.70;1.50;;;17.00;93.90;;;;;;5070586;28;20396;-68
2022/07/27 03:12:26;;;;;;;4.38;1.25;;;16.90;94.00;;;;;;5070910;28;20028;-68
2022/07/27 03:14:52;;;;;;;4.57;1.30;;;17.00;94.10;;;;;;5070761;28;20024;-71
2022/07/27 03:17:18;;;;;;;3.50;1.02;;;16.90;94.10;;;;;;5070768;28;20112;-71
2022/07/27 03:19:44;;;;;;;3.80;1.48;;;17.00;94.10;;;;;;5070562;28;20029;-70
2022/07/27 03:22:10;;;;;;;7.30;2.20;;;17.00;94.10;;;;;;5070885;28;20060;-71
2022/07/27 03:24:36;;;;;;;5.25;1.40;;;16.90;94.10;;;;;;5071159;28;20052;-71
2022/07/27 03:27:02;;;;;;;3.10;1.40;;;16.90;94.10;;;;;;5070684;28;20060;-71
2022/07/27 03:29:28;;;;;;;3.05;1.20;;;17.00;94.20;;;;;;5070474;28;20054;-71
2022/07/27 03:31:54;;;;;;;5.20;1.50;;;17.00;94.20;;;;;;5070692;28;20491;-71
2022/07/27 03:34:20;;;;;;;3.85;1.55;;;17.00;93.90;;;;;;5070842;28;20029;-71
2022/07/27 03:36:45;;;;;;;3.70;1.48;;;17.00;93.80;;;;;;5070630;28;20032;-71
2022/07/27 03:39:12;;;;;;;4.80;1.70;;;16.90;94.00;;;;;;5070462;28;20021;-71
2022/07/27 03:41:38;;;;;;;4.75;1.40;;;16.80;94.10;;;;;;5072869;28;20029;-71
2022/07/27 03:44:05;;;;;;;3.75;1.65;;;16.70;94.20;;;;;;5074787;28;20063;-71
2022/07/27 03:46:31;;;;;;;4.13;1.58;;;16.70;94.30;;;;;;5074463;28;20112;-71
2022/07/27 03:48:57;;;;;;;5.07;1.25;;;16.70;94.40;;;;;;5074376;28;20028;-71
2022/07/27 03:51:23;;;;;;;7.38;1.70;;;16.70;94.40;;;;;;5074513;28;20028;-71
2022/07/27 03:53:49;;;;;;;7.50;1.75;;;16.70;94.50;;;;;;5074864;28;20032;-71
2022/07/27 03:56:15;;;;;;;3.70;1.35;;;16.60;94.50;;;;;;5074378;28;20028;-69
2022/07/27 03:58:41;;;;;;;5.35;1.40;;;16.60;94.60;;;;;;5074212;28;20036;-68
2022/07/27 04:01:07;;;;;;;4.95;1.92;;;16.60;94.70;;;;;;5074315;28;20060;-70
2022/07/27 04:03:33;;;;;;;3.85;1.40;;;16.50;94.70;;;;;;5074142;28;20059;-71
2022/07/27 04:05:59;;;;;;;5.32;1.48;;;16.50;94.80;;;;;;5074174;28;20032;-71
2022/07/27 04:08:25;;;;;;;5.43;1.65;;;16.50;94.90;;;;;;5074146;28;20025;-71
2022/07/27 04:10:51;;;;;;;3.38;1.30;;;16.50;94.80;;;;;;5074001;28;20388;-71
2022/07/27 04:13:20;;;;;;;6.15;1.20;;;16.40;95.00;;;;;;5073981;28;20488;-71
2022/07/27 04:15:46;;;;;;;;;;;16.40;95.00;;;;;;5074409;28;20029;-71
2022/07/27 04:18:12;;;;;;;3.05;1.25;;;16.40;95.00;;;;;;5074066;28;20359;-71
2022/07/27 04:20:38;;;;;;;6.57;1.80;;;16.40;95.00;;;;;;5073511;28;20025;-71
2022/07/27 04:23:04;;;;;;;6.82;2.03;;;16.30;95.10;;;;;;5074010;28;20021;-71
2022/07/27 04:25:30;;;;;;;7.22;1.70;;;16.40;95.10;;;;;;5056012;28;20477;-71
2022/07/27 04:27:56;;;;;;;4.97;1.77;;;16.30;95.20;;;;;;5056140;28;20119;-69
2022/07/27 04:30:22;;;;;;;5.75;1.80;;;16.30;95.30;;;;;;5073450;28;20571;-71
2022/07/27 04:32:48;;;;;;;4.28;1.80;;;16.30;95.30;;;;;;5073779;28;20036;-71
2022/07/27 04:35:14;;;;;;;6.00;1.88;;;16.30;95.30;;;;;;5073860;28;20074;-71
2022/07/27 04:37:40;;;;;;;7.40;1.90;;;16.40;95.30;;;;;;5073632;28;20119;-71
2022/07/27 04:40:07;;;;;;;5.47;1.77;;;16.40;95.30;;;;;;5073281;28;20115;-71
2022/07/27 04:42:33;;;;;;;3.78;1.60;;;16.40;95.30;;;;;;5073586;28;20449;-71
2022/07/27 04:44:59;;;;;;;4.53;1.90;;;16.40;95.40;;;;;;5073472;28;20024;-71
2022/07/27 04:47:25;;;;;;;7.97;1.95;;;16.40;95.40;;;;;;5073282;28;20029;-71
2022/07/27 04:49:51;;;;;;;5.93;2.00;;;16.40;95.70;;;;;;5073329;28;20051;-71
2022/07/27 04:52:17;;;;;;;7.95;1.88;;;16.40;95.40;;;;;;5072924;28;20497;-71
2022/07/27 04:54:43;;;;;;;4.25;1.77;;;16.40;95.50;;;;;;5055290;28;20028;-71
2022/07/27 04:57:09;;;;;;;5.30;1.77;;;16.40;95.50;;;;;;5073188;28;20393;-71
2022/07/27 04:59:35;;;;;;;5.70;2.50;;;16.40;95.60;;;;;;5072946;28;20040;-71
2022/07/27 05:02:01;;;;;;;8.02;2.60;;;16.40;95.60;;;;;;5073212;28;20040;-71
2022/07/27 05:04:27;;;;;;;7.22;2.35;;;16.50;95.60;;;;;;5073317;28;20116;-71
2022/07/27 05:06:53;;;;;;;5.93;1.92;;;16.50;95.50;;;;;;5073035;28;20108;-71
2022/07/27 05:09:19;;;;;;;8.75;2.40;;;16.50;95.40;;;;;;5072863;28;20032;-71
2022/07/27 05:11:45;;;;;;;5.63;1.90;;;16.60;95.30;;;;;;5072864;28;20473;-71
2022/07/27 05:14:11;;;;;;;7.20;2.03;;;16.60;95.40;;;;;;5073074;28;20393;-71
2022/07/27 05:16:39;;;;;;;5.35;2.30;;;16.70;95.20;;;;;;5073089;28;20032;-71
2022/07/27 05:19:05;;;;;;;6.70;1.77;;;16.80;95.20;;;;;;5072826;28;20374;-71
2022/07/27 05:21:31;;;;;;;5.85;2.15;;;16.80;95.10;;;;;;5072711;28;20021;-71
2022/07/27 05:23:58;;;;;;;7.05;1.92;;;16.80;95.10;;;;;;5072740;28;20574;-71
2022/07/27 05:26:24;;;;;;;6.47;1.80;;;16.80;95.10;;;;;;5072561;28;20056;-71
2022/07/27 05:28:50;;;;;;;7.75;1.95;;;16.90;95.10;;;;;;5072462;28;20033;-71
2022/07/27 05:31:17;;;;;;;5.85;2.00;;;17.00;94.80;;;;;;5072657;28;20123;-71
2022/07/27 05:33:43;;;;;;;5.05;2.17;;;17.10;94.60;;;;;;5072772;28;20064;-71
2022/07/27 05:36:09;;;;;;;7.82;2.35;;;17.10;94.50;;;;;;5073011;28;20089;-71
2022/07/27 05:38:39;;;;;;;5.75;2.20;;;17.20;94.30;;;;;;5072185;28;20358;-71
2022/07/27 05:41:06;;;;;;;9.00;2.97;;;17.20;94.20;;;;;;5072419;28;20111;-71
2022/07/27 05:43:32;;;;;;;4.18;1.70;;;17.20;94.00;;;;;;5072489;28;20477;-71
2022/07/27 05:45:58;;;;;;;6.07;1.92;;;17.30;94.40;;;;;;5072383;28;20039;-71
2022/07/27 05:48:24;;;;;;;7.85;2.03;;;17.30;94.00;;;;;;5072208;28;20028;-71
2022/07/27 05:50:50;;;;;;;9.77;2.33;;;17.30;93.90;;;;;;5072201;28;20033;-71
2022/07/27 05:53:17;;;;;;;8.45;2.28;;;17.40;93.90;;;;;;5072139;28;20025;-71
2022/07/27 05:55:43;;;;;;;8.85;1.95;;;17.40;93.60;;;;;;5072165;28;20178;-71
2022/07/27 05:58:09;;;;;;;6.15;1.60;;;17.50;93.20;;;;;;5072422;28;20051;-71
2022/07/27 06:00:35;;;;;;;6.32;1.52;;;17.40;93.20;;;;;;5054163;28;20025;-71
2022/07/27 06:03:01;;;;;;;10.77;1.95;;;17.50;93.40;;;;;;5071458;28;20029;-71
2022/07/27 06:05:27;;;;;;;9.35;1.50;;;17.50;93.20;;;;;;5071767;28;20036;-71
2022/07/27 06:07:59;;;;;;;7.70;1.88;;;17.50;93.30;;;;;;5071733;28;20385;-71
2022/07/27 06:10:31;;;;;;;5.20;1.70;;;17.50;93.00;;;;;;5071556;28;20052;-71
2022/07/27 06:12:57;;;;;;;10.13;3.80;;;17.50;92.90;;;;;;5053992;28;20032;-71
2022/07/27 06:15:23;;;;;;;7.38;2.75;;;17.50;92.90;;;;;;5071721;28;20396;-69
2022/07/27 06:17:52;;;;;;;8.35;1.98;;;17.50;93.20;;;;;;5053724;28;20037;-69
2022/07/27 06:20:22;;;;;;;6.47;1.38;;;17.50;93.30;;;;;;5077958;22;20500;31
2022/07/27 06:22:58;;;;;;;7.07;1.50;;;17.50;93.40;;;;;;5007309;28;20063;-83
2022/07/27 06:25:25;;;;;;;6.05;1.67;;;17.50;93.10;;;;;;5010872;28;20034;-82
2022/07/27 06:27:54;;;;;;;6.40;1.23;;;17.60;93.00;;;;;;5011562;28;20065;-82
2022/07/27 06:30:21;;;;;;;5.50;1.77;;;17.60;92.80;;;;;;5010102;28;20030;-82
2022/07/27 06:32:47;;;;;;;5.47;1.20;;;17.60;92.60;;;;;;4994271;28;20030;-83
2022/07/27 06:35:16;;;;;;;8.63;1.60;;;17.70;92.60;;;;;;5011727;28;20033;-92
2022/07/27 06:37:47;;;;;;;9.15;3.63;;;17.70;92.60;;;;;;4994722;28;20026;-85
2022/07/27 06:40:13;;;;;;;7.32;2.95;;;17.70;93.70;;;;;;4993543;28;20474;-82
2022/07/27 06:42:42;;;;;;;5.38;1.95;;;17.70;93.00;;;;;;5011642;28;20109;-82
2022/07/27 06:45:09;;;;;;;6.20;1.88;;;17.70;92.80;;;;;;5011549;28;20180;-82
2022/07/27 06:47:35;;;;;;;7.30;1.50;;;17.80;93.00;;;;;;4993757;28;20029;-82
2022/07/27 06:50:01;;;;;;;5.25;1.00;;;17.80;92.60;;;;;;5011160;28;20034;-82
2022/07/27 06:52:27;;;;;;;3.75;1.15;;;17.80;92.50;;;;;;5011308;28;20030;-82
2022/07/27 06:54:53;;;;;;;3.75;1.25;;;17.80;92.40;;;;;;5011374;28;20088;-82
2022/07/27 06:57:18;;;;;;;6.95;1.23;;;17.80;92.40;;;;;;5011213;28;20034;-82
2022/07/27 06:59:44;;;;;;;3.63;1.13;;;17.90;92.60;;;;;;5010989;28;20394;-85
2022/07/27 07:02:10;;;;;;;2.10;1.05;;;17.90;92.40;;;;;;5011201;28;20033;-84
2022/07/27 07:04:36;;;;;;;2.70;1.40;;;18.00;92.40;;;;;;5009877;28;20022;-85
2022/07/27 07:07:02;;;;;;;5.03;1.55;;;18.00;92.20;;;;;;5010936;28;20040;-85
2022/07/27 07:09:28;;;;;;;8.80;1.27;;;18.00;91.70;;;;;;5010896;28;20026;-84
2022/07/27 07:11:55;;;;;;;5.95;1.27;;;18.10;91.80;;;;;;5011096;28;20041;-84
2022/07/27 07:14:21;;;;;;;4.82;1.25;;;18.00;91.80;;;;;;5011070;28;20065;-84
2022/07/27 07:16:47;;;;;;;7.53;1.50;;;18.10;91.90;;;;;;5011318;28;20038;-85
2022/07/27 07:19:13;;;;;;;6.68;1.48;;;18.10;91.80;;;;;;5010972;28;20037;-85
2022/07/27 07:21:40;;;;;;;5.47;1.85;;;18.10;91.50;;;;;;5010800;28;20469;-85
2022/07/27 07:24:06;;;;;;;5.90;1.65;;;18.10;91.50;;;;;;5011136;28;20026;-84
2022/07/27 07:26:32;;;;;;;5.53;1.60;;;18.10;91.30;;;;;;5010712;28;20033;-85
2022/07/27 07:28:58;;;;;;;7.07;1.67;;;18.10;91.20;;;;;;5010893;28;20034;-85
2022/07/27 07:31:24;;;;;;;5.03;1.80;;;18.10;91.30;;;;;;5010748;28;20038;-85
2022/07/27 07:33:50;;;;;;;7.10;1.55;;;18.20;91.40;;;;;;5010872;28;20113;-85
2022/07/27 07:36:16;;;;;;;4.63;1.13;;;18.20;91.10;;;;;;5010700;28;20037;-84
2022/07/27 07:38:42;;;;;;;5.70;1.63;;;18.20;90.80;;;;;;5010772;28;20037;-85
2022/07/27 07:41:09;;;;;;;4.18;1.23;;;18.30;91.10;;;;;;5010640;28;20045;-85
2022/07/27 07:43:37;;;;;;;4.53;1.25;;;18.30;91.20;;;;;;5010941;28;20105;-85
2022/07/27 07:46:03;;;;;;;3.88;0.90;;;18.50;91.20;;;;;;5010677;28;20030;-85
2022/07/27 07:48:29;;;;;;;4.40;1.23;;;18.50;90.80;;;;;;4993352;28;20041;-85
2022/07/27 07:50:55;;;;;;;3.90;1.17;;;18.60;90.60;;;;;;5010876;28;20026;-85
2022/07/27 07:53:22;;;;;;;4.15;1.00;;;18.70;90.80;;;;;;5010851;28;20394;-85
2022/07/27 07:55:48;;;;;;;4.15;1.10;;;18.70;90.50;;;;;;5009304;28;20026;-85
2022/07/27 07:58:14;;;;;;;3.20;1.00;;;18.80;90.40;;;;;;5010690;28;20048;-85
2022/07/27 08:00:40;;;;;;;3.05;0.70;;;18.90;90.20;;;;;;4992754;28;20042;-85
2022/07/27 08:03:06;;;;;;;4.72;1.00;;;18.90;90.20;;;;;;5010851;28;20037;-85
2022/07/27 08:05:32;;;;;;;6.25;1.00;;;19.00;89.80;;;;;;5009633;28;20034;-84
2022/07/27 08:07:58;;;;;;;6.57;0.90;;;19.00;89.80;;;;;;5010406;28;20045;-85
2022/07/27 08:10:24;;;;;;;3.22;0.98;;;19.00;89.90;;;;;;5010366;28;20033;-85
2022/07/27 08:12:54;;;;;;;4.97;1.17;;;19.00;89.50;;;;;;5010577;28;20073;-85
2022/07/27 08:15:20;;;;;;;4.70;1.02;;;18.90;89.70;;;;;;4976860;28;20040;-85
2022/07/27 08:17:47;;;;;;;4.32;1.17;;;18.80;89.40;;;;;;4992843;28;20497;-85
2022/07/27 08:20:14;;;;;;;5.03;1.23;;;18.80;87.80;;;;;;4976507;28;20030;-84
2022/07/27 08:22:41;;;;;;;4.40;1.10;;;18.80;87.70;;;;;;5010520;28;20037;-84
2022/07/27 08:25:07;;;;;;;2.45;0.80;;;18.80;87.50;;;;;;4993042;28;20030;-85
2022/07/27 08:27:33;;;;;;;4.75;1.20;;;18.70;88.40;;;;;;5012179;28;20556;-85
2022/07/27 08:29:59;;;;;;;6.07;2.17;;;18.70;89.00;;;;;;4979964;28;20069;-85
2022/07/27 08:32:25;;;;;;;4.28;1.30;;;18.60;88.30;;;;;;5014201;28;20470;-85
2022/07/27 08:34:51;;;;;;;4.75;1.60;;;18.60;88.70;;;;;;5013987;28;20033;-85
2022/07/27 08:37:17;;;;;;;5.25;1.05;;;18.60;89.50;;;;;;4996164;28;20069;-85
2022/07/27 08:39:43;;;;;;;4.65;1.02;;;18.60;90.00;;;;;;5013491;28;20536;-85
2022/07/27 08:42:09;;;;;;;3.95;1.23;;;18.70;89.50;;;;;;5013778;28;20037;-85
2022/07/27 08:44:39;;;;;;;4.40;1.13;;;18.70;88.60;;;;;;5014265;28;20038;-84
2022/07/27 08:47:07;;;;;;;4.78;1.10;;;18.70;87.20;;;;;;5013882;28;20437;-85
2022/07/27 08:49:33;;;;;;;4.18;1.15;;;18.60;87.40;;;;;;4995878;28;20034;-85
2022/07/27 08:52:00;;;;;;;3.13;0.70;;;18.70;87.20;;;;;;5013629;28;20044;-85
2022/07/27 08:54:27;;;;;;;3.13;0.88;;;18.70;86.60;;;;;;5013713;28;20033;-85
2022/07/27 08:56:52;;;;;;;5.82;0.98;;;18.80;86.90;;;;;;5013259;28;20042;-85
2022/07/27 08:59:18;;;;;;;3.33;0.80;;;18.80;85.90;;;;;;5013453;28;20037;-85
2022/07/27 09:01:44;;;;;;;2.47;0.88;;;18.80;85.80;;;;;;5013527;28;20450;-85
2022/07/27 09:04:10;;;;;;;5.45;1.02;;;18.80;85.50;;;;;;5013627;28;20053;-85
2022/07/27 09:06:49;;;;;;;3.17;0.80;;;18.80;85.10;;;;;;4995989;28;20030;-85
2022/07/27 09:09:17;;;;;;;4.63;0.90;;;18.80;85.70;;;;;;5013166;28;20045;-85
2022/07/27 09:11:44;;;;;;;2.25;0.65;;;18.70;86.30;;;;;;5013187;28;20041;-85
2022/07/27 09:14:11;;;;;;;5.13;1.00;;;18.80;86.60;;;;;;4979591;28;20114;-85
2022/07/27 09:16:40;;;;;;;4.43;0.90;;;18.80;87.20;;;;;;4995769;28;20390;-85
2022/07/27 09:19:07;;;;;;;;;;;18.80;86.10;;;;;;4995878;28;20116;-84
2022/07/27 09:21:35;;;;;;;3.17;0.90;;;18.90;85.70;;;;;;5012859;28;19913;-84
2022/07/27 09:24:10;;;;;;;2.57;0.80;;;18.90;85.70;;;;;;5013002;28;20451;-85
2022/07/27 09:26:36;;;;;;;3.05;0.90;;;18.90;85.50;;;;;;4995367;28;20025;-85
2022/07/27 09:29:13;;;;;;;6.47;1.20;;;18.90;85.90;;;;;;5012811;28;20469;-85
2022/07/27 09:31:47;;;;;;;3.20;0.88;;;18.90;86.20;;;;;;4995333;28;20037;-85
2022/07/27 09:34:29;;;;;;;3.22;0.90;;;19.00;86.40;;;;;;5012977;28;20034;-85
2022/07/27 09:36:57;;;;;;;4.00;1.10;;;19.00;86.20;;;;;;4995172;28;20125;-85
2022/07/27 09:39:25;;;;;;;3.53;0.80;;;19.10;86.50;;;;;;5010181;28;20033;-85
2022/07/27 09:41:58;;;;;;;8.00;1.10;;;19.10;85.10;;;;;;4994932;28;20034;-84
2022/07/27 09:44:39;;;;;;;2.70;0.77;;;19.20;84.90;;;;;;4995288;28;20327;-84
2022/07/27 09:47:25;;;;;;;3.65;0.93;;;19.20;85.30;;;;;;4978752;28;20041;-84
2022/07/27 09:49:55;;;;;;;4.25;1.38;;;19.30;84.60;;;;;;4994773;28;20030;-85
2022/07/27 09:52:26;;;;;;;5.38;1.38;;;19.30;82.80;;;;;;5012627;28;20041;-85
2022/07/27 09:54:53;;;;;;;4.57;1.25;;;19.30;83.40;;;;;;4994963;28;20026;-85
2022/07/27 09:57:18;;;;;;;5.47;1.88;;;19.30;83.60;;;;;;5012344;28;20121;-84
2022/07/27 09:59:45;;;;;;;4.07;1.20;;;19.30;82.20;;;;;;5012265;28;20117;-85
2022/07/27 10:02:15;;;;;;;3.45;0.90;;;19.30;81.00;;;;;;5012321;28;20030;-85
2022/07/27 10:04:42;;;;;;;4.93;1.50;;;19.30;78.90;;;;;;5012631;28;20030;-85
2022/07/27 10:07:09;;;;;;;4.57;1.25;;;19.30;79.70;;;;;;5012563;28;20105;-85
2022/07/27 10:09:34;;;;;;;3.60;1.23;;;19.30;78.80;;;;;;4978531;28;20080;-84
2022/07/27 10:12:03;;;;;;;3.20;0.93;;;19.30;79.50;;;;;;5010976;28;20042;-85
2022/07/27 10:14:28;;;;;;;3.20;1.10;;;19.30;78.90;;;;;;4994914;28;20042;-85
2022/07/27 10:16:55;;;;;;;6.43;1.27;;;19.30;79.20;;;;;;5012127;28;20041;-85
2022/07/27 10:19:30;;;;;;;6.28;1.40;;;19.30;80.00;;;;;;4994577;28;20044;-85
2022/07/27 10:21:56;;;;;;;5.25;1.48;;;19.30;80.30;;;;;;5012086;28;20044;-85
2022/07/27 10:24:32;;;;;;;6.20;1.50;;;19.30;78.40;;;;;;4994557;28;20490;-85
2022/07/27 10:26:58;;;;;;;4.22;1.20;;;19.30;78.90;;;;;;4994782;28;20438;-85
2022/07/27 10:29:24;;;;;;;4.47;1.27;;;19.30;78.80;;;;;;5012302;28;20137;-85
2022/07/27 10:31:53;;;;;;;4.47;1.20;;;19.40;79.50;;;;;;5012054;28;20040;-85
2022/07/27 10:34:34;;;;;;;6.03;1.38;;;19.40;80.00;;;;;;5011115;28;20061;-84
2022/07/27 10:37:30;;;;;;;4.45;1.30;;;19.40;79.70;;;;;;4994301;28;20429;-85
2022/07/27 10:42:43;;;;;;;5.88;1.80;;;19.40;79.40;;;;;;5012019;28;20038;-85
2022/07/27 10:45:11;;;;;;;5.38;1.73;;;19.50;79.70;;;;;;5011633;28;20049;-85
2022/07/27 10:47:40;;;;;;;5.43;1.73;;;19.50;78.90;;;;;;5011680;28;20221;-84
2022/07/27 10:50:15;;;;;;;3.10;1.20;;;19.50;77.40;;;;;;5011395;28;20121;-85
2022/07/27 10:52:47;;;;;;;3.45;1.52;;;19.60;77.50;;;;;;5011813;28;20057;-85
2022/07/27 10:55:41;;;;;;;4.97;1.40;;;19.60;76.80;;;;;;5011695;28;20033;-85
2022/07/27 10:58:09;;;;;;;4.18;1.27;;;19.60;76.40;;;;;;5007688;28;20111;-85
2022/07/27 11:00:50;;;;;;;7.10;1.77;;;19.70;77.20;;;;;;4993618;28;20474;-85
2022/07/27 11:03:27;;;;;;;5.07;1.40;;;19.70;77.90;;;;;;5011586;28;20024;-85
2022/07/27 11:05:53;;;;;;;3.00;0.98;;;19.70;77.40;;;;;;5011359;28;20022;-85
2022/07/27 11:08:24;;;;;;;3.92;0.98;;;19.80;76.70;;;;;;5011307;28;20105;-85
2022/07/27 11:10:50;;;;;;;4.05;1.10;;;19.90;76.70;;;;;;5011325;28;20044;-85
2022/07/27 11:13:20;;;;;;;6.93;1.50;;;20.00;76.60;;;;;;5011509;28;20045;-85
2022/07/27 11:15:51;;;;;;;1.98;0.90;;;19.90;75.90;;;;;;5011253;28;20104;-85
2022/07/27 11:18:17;;;;;;;3.58;1.00;;;20.00;76.10;;;;;;5011202;28;20037;-84
2022/07/27 11:20:43;;;;;;;2.28;0.85;;;20.00;75.80;;;;;;5010850;28;20120;-85
2022/07/27 11:23:19;;;;;;;2.50;1.02;;;20.00;75.20;;;;;;5011440;28;20030;-85
2022/07/27 11:26:01;;;;;;;3.65;0.88;;;20.00;74.20;;;;;;5011228;28;20033;-85
2022/07/27 11:28:30;;;;;;;3.22;0.80;;;20.00;73.50;;;;;;5011249;28;20050;-85
2022/07/27 11:30:58;;;;;;;4.32;1.08;;;20.10;73.40;;;;;;5010923;28;20041;-84
2022/07/27 11:33:24;;;;;;;3.33;0.98;;;20.10;73.50;;;;;;5011088;28;20033;-85
2022/07/27 11:35:59;;;;;;;2.45;0.80;;;20.10;73.20;;;;;;4977382;28;20081;-85
2022/07/27 11:38:25;;;;;;;3.63;1.40;;;20.10;74.00;;;;;;4993491;28;20038;-85
2022/07/27 11:40:52;;;;;;;5.25;1.25;;;20.10;73.60;;;;;;4993237;28;20030;-85
2022/07/27 11:43:31;;;;;;;4.00;1.30;;;20.20;73.40;;;;;;5011191;28;20483;-85
2022/07/27 11:46:17;;;;;;;3.45;1.65;;;20.30;73.80;;;;;;5010793;28;20034;-85
2022/07/27 11:48:56;;;;;;;2.28;0.90;;;20.30;73.80;;;;;;4993336;28;20077;-85
2022/07/27 11:51:23;;;;;;;6.03;1.40;;;20.40;73.80;;;;;;5010870;28;20408;-85
2022/07/27 11:53:55;;;;;;;4.38;1.60;;;20.60;72.70;;;;;;5010908;28;20033;-85
2022/07/27 11:56:23;;;;;;;4.10;1.08;;;20.60;71.60;;;;;;5010710;28;20496;-85
2022/07/27 11:59:11;;;;;;;3.03;0.90;;;20.60;70.70;;;;;;5010835;28;20461;-85
2022/07/27 12:02:04;;;;;;;2.70;1.05;;;20.60;70.40;;;;;;5011215;28;20052;-85
2022/07/27 12:04:38;;;;;;;5.00;1.20;;;20.50;70.60;;;;;;5009002;28;20038;-85
2022/07/27 12:07:12;;;;;;;4.75;1.40;;;20.50;70.90;;;;;;5014435;28;20486;-85
2022/07/27 12:09:43;;;;;;;1.70;0.70;;;20.40;71.40;;;;;;4996867;28;20030;-85
2022/07/27 12:12:10;;;;;;;2.42;0.70;;;20.40;71.80;;;;;;4996763;28;20516;-85
2022/07/27 12:14:39;;;;;;;2.83;0.60;;;20.40;72.00;;;;;;5014313;28;20466;-85
2022/07/27 12:17:14;;;;;;;3.05;1.00;;;20.40;71.50;;;;;;5014183;28;20044;-85
2022/07/27 12:19:40;;;;;;;4.72;1.50;;;20.40;71.90;;;;;;5012915;28;20105;-85
2022/07/27 12:22:07;;;;;;;3.40;1.60;;;20.30;72.10;;;;;;5065294;22;20442;-83
2022/07/27 12:24:37;;;;;;;3.63;1.40;;;20.30;73.20;;;;;;5034055;28;20026;-84
2022/07/27 12:27:11;;;;;;;2.67;1.33;;;20.20;73.20;;;;;;5016080;28;20084;-84
2022/07/27 12:30:01;;;;;;;2.75;1.23;;;20.30;74.10;;;;;;5033600;28;20029;-84
2022/07/27 12:32:30;;;;;;;3.70;1.20;;;20.40;74.10;;;;;;5033807;28;20036;-84
2022/07/27 12:34:56;;;;;;;2.95;0.85;;;20.40;73.40;;;;;;5033865;28;20040;-84
2022/07/27 12:37:27;;;;;;;3.30;1.20;;;20.40;71.90;;;;;;5033531;28;20058;-86
2022/07/27 12:39:52;;;;;;;3.50;1.40;;;20.50;71.90;;;;;;5015754;28;20482;-84
2022/07/27 12:42:18;;;;;;;2.75;0.98;;;20.70;71.10;;;;;;5033397;28;20036;-84
2022/07/27 12:44:45;;;;;;;3.72;0.90;;;20.90;70.50;;;;;;5033833;28;20037;-86
2022/07/27 12:49:59;;;;;;;3.78;0.82;;;20.90;70.00;;;;;;5033414;28;20064;-84
2022/07/27 12:52:25;;;;;;;2.08;0.82;;;20.80;69.50;;;;;;5033237;28;20038;-84
2022/07/27 12:54:50;;;;;;;3.58;1.30;;;20.80;70.10;;;;;;5015865;28;20280;-84
2022/07/27 12:57:16;;;;;;;2.75;1.00;;;20.70;70.70;;;;;;5033349;28;20042;-84
2022/07/27 12:59:44;;;;;;;5.85;1.05;;;20.70;71.60;;;;;;5015588;28;20087;-84
2022/07/27 13:02:10;;;;;;;4.30;1.27;;;20.70;71.90;;;;;;5015546;28;20059;-84